createdAt,value
2022-10-17T00:00:16.572Z,15.42
2022-10-17T00:02:48.575Z,15.42
2022-10-17T00:05:20.372Z,15.41
2022-10-17T00:07:53.260Z,15.41
2022-10-17T00:10:25.026Z,15.42
2022-10-17T00:12:56.966Z,15.43
2022-10-17T00:15:28.874Z,15.42
2022-10-17T00:18:01.207Z,15.44
2022-10-17T00:20:35.462Z,15.43
2022-10-17T00:23:07.210Z,15.44
2022-10-17T00:25:40.607Z,15.41
2022-10-17T00:28:13.647Z,15.41
2022-10-17T00:30:45.470Z,15.41
2022-10-17T00:33:17.387Z,15.41
2022-10-17T00:35:49.235Z,15.40
2022-10-17T00:38:21.073Z,15.40
2022-10-17T00:40:52.928Z,15.42
2022-10-17T00:43:25.046Z,15.42
2022-10-17T00:45:56.993Z,15.42
2022-10-17T00:48:28.837Z,15.44
2022-10-17T00:51:00.717Z,15.47
2022-10-17T00:53:33.735Z,15.46
2022-10-17T00:56:06.315Z,15.48
2022-10-17T00:58:38.156Z,15.49
2022-10-17T01:01:10.306Z,15.50
2022-10-17T01:03:42.299Z,15.52
2022-10-17T01:06:14.177Z,15.57
2022-10-17T01:08:46.210Z,15.58
2022-10-17T01:11:27.084Z,15.59
2022-10-17T01:14:06.485Z,15.60
2022-10-17T01:16:57.955Z,15.65
2022-10-17T01:19:51.110Z,15.70
2022-10-17T01:22:33.621Z,15.76
2022-10-17T01:25:11.669Z,15.81
2022-10-17T01:28:02.438Z,15.86
2022-10-17T01:30:55.765Z,15.85
2022-10-17T01:33:45.989Z,15.85
2022-10-17T01:36:27.071Z,15.83
2022-10-17T01:39:10.908Z,15.82
2022-10-17T01:41:42.810Z,15.77
2022-10-17T01:44:29.709Z,15.73
2022-10-17T01:47:05.666Z,15.71
2022-10-17T01:49:39.443Z,15.70
2022-10-17T01:52:15.104Z,15.67
2022-10-17T01:54:51.610Z,15.67
2022-10-17T01:57:50.280Z,15.65
2022-10-17T02:00:24.998Z,15.63
2022-10-17T02:03:00.805Z,15.64
2022-10-17T02:05:37.089Z,15.65
2022-10-17T02:08:09.808Z,15.66
2022-10-17T02:10:50.623Z,15.66
2022-10-17T02:13:52.430Z,15.67
2022-10-17T02:16:39.475Z,15.68
2022-10-17T02:19:22.511Z,15.69
2022-10-17T02:22:11.139Z,15.69
2022-10-17T02:24:57.724Z,15.69
2022-10-17T02:27:39.350Z,15.69
2022-10-17T02:30:23.002Z,15.67
2022-10-17T02:33:02.230Z,15.65
2022-10-17T02:35:37.827Z,15.63
2022-10-17T02:38:11.046Z,15.61
2022-10-17T02:40:44.601Z,15.61
2022-10-17T02:43:16.609Z,15.64
2022-10-17T02:45:49.058Z,15.67
2022-10-17T02:48:42.765Z,15.71
2022-10-17T02:51:23.411Z,15.76
2022-10-17T02:54:26.202Z,15.81
2022-10-17T02:57:03.112Z,15.81
2022-10-17T02:59:36.309Z,15.81
2022-10-17T03:02:08.596Z,15.79
2022-10-17T03:04:47.140Z,15.80
2022-10-17T03:07:19.016Z,15.78
2022-10-17T03:09:51.120Z,15.78
2022-10-17T03:12:23.518Z,15.76
2022-10-17T03:14:55.517Z,15.77
2022-10-17T03:17:27.513Z,15.77
2022-10-17T03:19:59.468Z,15.77
2022-10-17T03:22:32.012Z,15.78
2022-10-17T03:25:05.807Z,15.77
2022-10-17T03:27:40.560Z,15.78
2022-10-17T03:30:13.698Z,15.77
2022-10-17T03:32:47.452Z,15.77
2022-10-17T03:35:19.593Z,15.78
2022-10-17T03:37:55.826Z,15.78
2022-10-17T03:40:28.683Z,15.78
2022-10-17T03:43:00.655Z,15.79
2022-10-17T03:45:33.794Z,15.78
2022-10-17T03:48:06.259Z,15.77
2022-10-17T03:50:38.140Z,15.76
2022-10-17T03:53:10.144Z,15.76
2022-10-17T03:55:42.173Z,15.76
2022-10-17T03:58:14.218Z,15.75
2022-10-17T04:00:46.073Z,15.74
2022-10-17T04:03:18.895Z,15.74
2022-10-17T04:05:52.167Z,15.74
2022-10-17T04:08:24.538Z,15.74
2022-10-17T04:11:10.513Z,15.73
2022-10-17T04:13:43.765Z,15.72
2022-10-17T04:16:16.826Z,15.71
2022-10-17T04:19:01.803Z,15.70
2022-10-17T04:21:39.106Z,15.70
2022-10-17T04:24:13.253Z,15.68
2022-10-17T04:27:03.822Z,15.65
2022-10-17T04:29:38.453Z,15.64
2022-10-17T04:32:16.050Z,15.60
2022-10-17T04:34:55.058Z,15.58
2022-10-17T04:37:29.508Z,15.57
2022-10-17T04:40:02.304Z,15.55
2022-10-17T04:42:37.107Z,15.54
2022-10-17T04:45:09.929Z,15.52
2022-10-17T04:47:42.664Z,15.51
2022-10-17T04:50:14.635Z,15.49
2022-10-17T04:52:47.754Z,15.48
2022-10-17T04:55:20.295Z,15.44
2022-10-17T04:57:52.411Z,15.43
2022-10-17T05:00:26.012Z,15.42
2022-10-17T05:03:19.667Z,15.43
2022-10-17T05:05:51.645Z,15.40
2022-10-17T05:08:23.739Z,15.38
2022-10-17T05:10:55.826Z,15.38
2022-10-17T05:13:28.293Z,15.37
2022-10-17T05:16:00.818Z,15.37
2022-10-17T05:18:32.638Z,15.36
2022-10-17T05:21:04.758Z,15.33
2022-10-17T05:23:37.838Z,15.30
2022-10-17T05:26:10.157Z,15.29
2022-10-17T05:28:42.662Z,15.26
2022-10-17T05:31:15.023Z,15.25
2022-10-17T05:33:47.454Z,15.24
2022-10-17T05:36:19.949Z,15.24
2022-10-17T05:38:52.510Z,15.23
2022-10-17T05:41:24.550Z,15.21
2022-10-17T05:43:57.240Z,15.18
2022-10-17T05:46:43.148Z,15.15
2022-10-17T05:49:31.945Z,15.13
2022-10-17T05:52:05.539Z,15.13
2022-10-17T05:54:45.870Z,15.12
2022-10-17T05:57:17.982Z,15.08
2022-10-17T05:59:50.132Z,15.08
2022-10-17T06:02:25.054Z,15.07
2022-10-17T06:04:57.041Z,15.07
2022-10-17T06:07:29.761Z,15.04
2022-10-17T06:10:02.239Z,15.05
2022-10-17T06:12:34.440Z,15.04
2022-10-17T06:15:07.124Z,15.02
2022-10-17T06:17:39.727Z,14.99
2022-10-17T06:20:11.581Z,15.00
2022-10-17T06:22:43.853Z,14.99
2022-10-17T06:25:21.111Z,15.01
2022-10-17T06:30:29.901Z,15.02
2022-10-17T06:33:01.967Z,15.05
2022-10-17T06:35:34.067Z,15.04
2022-10-17T06:38:06.652Z,15.03
2022-10-17T06:40:40.610Z,15.03
2022-10-17T06:43:13.142Z,15.02
2022-10-17T06:46:02.701Z,15.01
2022-10-17T06:48:38.146Z,15.01
2022-10-17T06:51:18.987Z,15.02
2022-10-17T06:53:58.895Z,15.04
2022-10-17T06:56:51.007Z,15.08
2022-10-17T06:59:31.932Z,15.11
2022-10-17T07:02:10.458Z,15.12
2022-10-17T07:04:42.744Z,15.15
2022-10-17T07:07:17.707Z,15.18
2022-10-17T07:09:51.507Z,15.20
2022-10-17T07:12:24.978Z,15.23
2022-10-17T07:14:57.118Z,15.25
2022-10-17T07:17:29.235Z,15.28
2022-10-17T07:20:01.229Z,15.31
2022-10-17T07:22:35.509Z,15.35
2022-10-17T07:25:08.225Z,15.39
2022-10-17T07:27:50.482Z,15.46
2022-10-17T07:30:23.461Z,15.55
2022-10-17T07:33:07.167Z,15.61
2022-10-17T07:35:44.321Z,15.65
2022-10-17T07:38:16.798Z,15.70
2022-10-17T07:40:54.628Z,15.73
2022-10-17T07:43:27.066Z,15.78
2022-10-17T07:46:01.152Z,15.84
2022-10-17T07:48:33.161Z,15.87
2022-10-17T07:51:07.113Z,15.93
2022-10-17T07:53:41.722Z,15.99
2022-10-17T07:56:15.918Z,16.09
2022-10-17T07:58:48.398Z,16.23
2022-10-17T08:01:20.258Z,16.40
2022-10-17T08:03:52.232Z,16.56
2022-10-17T08:06:24.124Z,16.67
2022-10-17T08:08:57.871Z,16.71
2022-10-17T08:11:29.707Z,16.78
2022-10-17T08:14:01.630Z,16.84
2022-10-17T08:16:33.669Z,16.90
2022-10-17T08:21:46.903Z,16.99
2022-10-17T08:24:18.856Z,17.01
2022-10-17T08:26:51.894Z,17.03
2022-10-17T08:29:24.228Z,17.06
2022-10-17T08:32:00.883Z,17.11
2022-10-17T08:34:32.999Z,17.15
2022-10-17T08:37:04.970Z,17.19
2022-10-17T08:39:37.829Z,17.24
2022-10-17T08:42:26.079Z,17.31
2022-10-17T08:45:16.958Z,17.35
2022-10-17T08:47:53.410Z,17.39
2022-10-17T08:50:34.306Z,17.45
2022-10-17T08:53:13.290Z,17.46
2022-10-17T08:55:50.012Z,17.51
2022-10-17T08:58:28.422Z,17.55
2022-10-17T09:01:25.043Z,17.61
2022-10-17T09:04:10.325Z,17.71
2022-10-17T09:06:54.483Z,17.81
2022-10-17T09:09:55.086Z,17.96
2022-10-17T09:12:45.642Z,18.10
2022-10-17T09:15:38.905Z,18.22
2022-10-17T09:18:33.954Z,18.32
2022-10-17T09:21:19.957Z,18.40
2022-10-17T09:23:59.699Z,18.46
2022-10-17T09:26:42.147Z,18.52
2022-10-17T09:29:23.163Z,18.56
2022-10-17T09:32:01.657Z,18.60
2022-10-17T09:34:33.561Z,18.67
2022-10-17T09:37:12.678Z,18.71
2022-10-17T09:39:44.887Z,18.76
2022-10-17T09:42:21.645Z,18.81
2022-10-17T09:45:16.659Z,18.84
2022-10-17T09:48:10.331Z,18.89
2022-10-17T09:50:42.161Z,18.93
2022-10-17T09:53:17.564Z,18.99
2022-10-17T09:55:58.593Z,19.05
2022-10-17T09:58:41.510Z,19.12
2022-10-17T10:01:29.711Z,19.18
2022-10-17T10:04:13.075Z,19.26
2022-10-17T10:07:05.877Z,19.37
2022-10-17T10:09:39.641Z,19.47
2022-10-17T10:12:24.722Z,19.57
2022-10-17T10:14:57.784Z,19.66
2022-10-17T10:17:35.491Z,19.74
2022-10-17T10:20:33.464Z,19.84
2022-10-17T10:23:17.484Z,19.93
2022-10-17T10:25:56.510Z,19.99
2022-10-17T10:28:30.705Z,20.08
2022-10-17T10:31:06.196Z,20.15
2022-10-17T10:33:42.996Z,20.24
2022-10-17T10:36:16.020Z,20.33
2022-10-17T10:38:53.229Z,20.44
2022-10-17T10:41:27.869Z,20.52
2022-10-17T10:43:59.873Z,20.58
2022-10-17T10:46:32.023Z,20.62
2022-10-17T10:49:04.369Z,20.64
2022-10-17T10:51:42.536Z,20.64
2022-10-17T10:54:32.865Z,20.63
2022-10-17T10:57:07.394Z,20.64
2022-10-17T11:00:04.146Z,20.64
2022-10-17T11:03:13.850Z,20.70
2022-10-17T11:05:57.744Z,20.74
2022-10-17T11:08:40.889Z,20.77
2022-10-17T11:11:29.471Z,20.83
2022-10-17T11:14:12.997Z,20.89
2022-10-17T11:17:10.570Z,20.93
2022-10-17T11:19:53.003Z,20.96
2022-10-17T11:22:46.732Z,21.01
2022-10-17T11:25:33.472Z,21.08
2022-10-17T11:28:16.358Z,21.13
2022-10-17T11:30:55.516Z,21.16
2022-10-17T11:33:32.172Z,21.22
2022-10-17T11:36:06.331Z,21.27
2022-10-17T11:38:45.858Z,21.31
2022-10-17T11:41:31.629Z,21.35
2022-10-17T11:44:03.488Z,21.39
2022-10-17T11:46:36.085Z,21.42
2022-10-17T11:49:16.126Z,21.42
2022-10-17T11:52:02.275Z,21.41
2022-10-17T11:54:50.521Z,21.40
2022-10-17T11:57:49.506Z,21.37
2022-10-17T12:00:27.151Z,21.32
2022-10-17T12:03:32.657Z,21.27
2022-10-17T12:06:18.938Z,21.04
2022-10-17T12:09:00.836Z,20.46
2022-10-17T12:11:53.490Z,19.96
2022-10-17T12:14:45.695Z,19.56
2022-10-17T12:17:40.457Z,19.27
2022-10-17T12:20:23.627Z,19.11
2022-10-17T12:23:04.748Z,19.00
2022-10-17T12:25:42.650Z,18.93
2022-10-17T12:28:17.692Z,18.88
2022-10-17T12:31:29.592Z,18.88
2022-10-17T12:34:05.612Z,18.86
2022-10-17T12:36:38.546Z,18.88
2022-10-17T12:39:13.653Z,18.92
2022-10-17T12:41:46.539Z,18.97
2022-10-17T12:44:21.412Z,19.00
2022-10-17T12:47:29.289Z,19.03
2022-10-17T12:50:01.593Z,19.05
2022-10-17T12:52:35.080Z,19.06
2022-10-17T12:55:14.043Z,19.07
2022-10-17T12:57:50.718Z,19.09
2022-10-17T13:00:25.416Z,19.09
2022-10-17T13:03:03.734Z,19.08
2022-10-17T13:05:37.719Z,19.06
2022-10-17T13:08:36.133Z,19.06
2022-10-17T13:11:09.225Z,19.08
2022-10-17T13:13:53.465Z,19.06
2022-10-17T13:16:31.370Z,19.05
2022-10-17T13:19:12.685Z,18.97
2022-10-17T13:22:06.064Z,18.79
2022-10-17T13:24:40.631Z,18.67
2022-10-17T13:27:30.539Z,18.64
2022-10-17T13:30:29.358Z,18.60
2022-10-17T13:33:18.154Z,18.58
2022-10-17T13:36:05.674Z,18.57
2022-10-17T13:38:40.359Z,18.52
2022-10-17T13:41:34.869Z,18.47
2022-10-17T13:44:28.791Z,18.45
2022-10-17T13:47:01.055Z,18.44
2022-10-17T13:49:40.391Z,18.43
2022-10-17T13:52:18.436Z,18.45
2022-10-17T13:54:51.849Z,18.45
2022-10-17T13:57:27.928Z,18.44
2022-10-17T14:00:09.859Z,18.44
2022-10-17T14:02:46.752Z,18.44
2022-10-17T14:05:20.994Z,18.44
2022-10-17T14:08:12.987Z,18.43
2022-10-17T14:10:46.222Z,18.46
2022-10-17T14:13:28.623Z,18.46
2022-10-17T14:16:02.123Z,18.47
2022-10-17T14:18:36.713Z,18.47
2022-10-17T14:24:27.974Z,18.53
2022-10-17T14:27:00.531Z,18.55
2022-10-17T14:29:51.020Z,18.55
2022-10-17T14:32:23.219Z,18.57
2022-10-17T14:35:05.556Z,18.57
2022-10-17T14:37:45.020Z,18.57
2022-10-17T14:40:23.664Z,18.54
2022-10-17T14:42:58.229Z,18.51
2022-10-17T14:45:32.548Z,18.48
2022-10-17T14:48:10.465Z,18.48
2022-10-17T14:50:46.800Z,18.48
2022-10-17T14:53:21.725Z,18.48
2022-10-17T14:55:58.525Z,18.48
2022-10-17T14:58:33.800Z,18.47
2022-10-17T15:01:06.015Z,18.46
2022-10-17T15:03:37.842Z,18.43
2022-10-17T15:06:20.217Z,18.43
2022-10-17T15:08:52.027Z,18.43
2022-10-17T15:11:24.413Z,18.44
2022-10-17T15:13:56.933Z,18.45
2022-10-17T15:16:33.593Z,18.44
2022-10-17T15:19:05.525Z,18.46
2022-10-17T15:21:43.253Z,18.46
2022-10-17T15:24:18.620Z,18.46
2022-10-17T15:26:50.661Z,18.44
2022-10-17T15:29:22.684Z,18.45
2022-10-17T15:31:54.483Z,18.43
2022-10-17T15:34:26.520Z,18.43
2022-10-17T15:36:58.797Z,18.41
2022-10-17T15:39:30.836Z,18.40
2022-10-17T15:42:03.511Z,18.41
2022-10-17T15:44:36.606Z,18.39
2022-10-17T15:47:19.655Z,18.40
2022-10-17T15:49:51.982Z,18.39
2022-10-17T15:52:24.105Z,18.38
2022-10-17T15:54:59.501Z,18.40
2022-10-17T15:57:38.853Z,18.36
2022-10-17T16:00:23.667Z,18.35
2022-10-17T16:02:55.909Z,18.33
2022-10-17T16:05:29.102Z,18.30
2022-10-17T16:08:00.964Z,18.30
2022-10-17T16:10:33.001Z,18.28
2022-10-17T16:13:04.883Z,18.30
2022-10-17T16:15:37.023Z,18.29
2022-10-17T16:18:10.076Z,18.30
2022-10-17T16:20:42.217Z,18.31
2022-10-17T16:23:14.597Z,18.32
2022-10-17T16:25:46.420Z,18.33
2022-10-17T16:28:18.431Z,18.35
2022-10-17T16:30:50.356Z,18.34
2022-10-17T16:33:22.455Z,18.33
2022-10-17T16:35:54.400Z,18.32
2022-10-17T16:38:26.250Z,18.33
2022-10-17T16:40:58.424Z,18.32
2022-10-17T16:43:36.073Z,18.31
2022-10-17T16:46:07.985Z,18.32
2022-10-17T16:51:18.769Z,18.30
2022-10-17T16:53:52.914Z,18.27
2022-10-17T16:56:25.089Z,18.25
2022-10-17T16:58:57.289Z,18.26
2022-10-17T17:01:30.443Z,18.24
2022-10-17T17:04:05.672Z,18.28
2022-10-17T17:06:37.750Z,18.27
2022-10-17T17:09:09.843Z,18.26
2022-10-17T17:11:41.675Z,18.27
2022-10-17T17:14:13.892Z,18.26
2022-10-17T17:16:45.911Z,18.27
2022-10-17T17:19:17.735Z,18.28
2022-10-17T17:21:52.173Z,18.25
2022-10-17T17:24:24.048Z,18.24
2022-10-17T17:26:56.630Z,18.24
2022-10-17T17:29:28.578Z,18.26
2022-10-17T17:32:00.526Z,18.26
2022-10-17T17:34:36.131Z,18.27
2022-10-17T17:37:08.149Z,18.29
2022-10-17T17:39:40.043Z,18.31
2022-10-17T17:42:11.897Z,18.32
2022-10-17T17:44:43.952Z,18.33
2022-10-17T17:47:15.824Z,18.33
2022-10-17T17:49:47.730Z,18.34
2022-10-17T17:52:22.557Z,18.34
2022-10-17T17:54:54.485Z,18.32
2022-10-17T17:57:26.394Z,18.32
2022-10-17T17:59:58.303Z,18.31
2022-10-17T18:02:30.446Z,18.32
2022-10-17T18:05:02.781Z,18.33
2022-10-17T18:07:37.838Z,18.30
2022-10-17T18:12:46.931Z,18.32
2022-10-17T18:15:19.130Z,18.30
2022-10-17T18:17:51.006Z,18.31
2022-10-17T18:20:22.879Z,18.30
2022-10-17T18:22:54.956Z,18.30
2022-10-17T18:25:26.833Z,18.31
2022-10-17T18:27:58.738Z,18.28
2022-10-17T18:30:33.731Z,18.29
2022-10-17T18:33:06.641Z,18.26
2022-10-17T18:35:38.626Z,18.24
2022-10-17T18:38:10.537Z,18.25
2022-10-17T18:40:43.415Z,18.23
2022-10-17T18:43:16.966Z,18.23
2022-10-17T18:45:48.917Z,18.23
2022-10-17T18:48:20.769Z,18.24
2022-10-17T18:50:52.607Z,18.27
2022-10-17T18:53:24.404Z,18.28
2022-10-17T18:55:56.660Z,18.26
2022-10-17T18:58:28.696Z,18.25
2022-10-17T19:01:05.159Z,18.21
2022-10-17T19:03:37.491Z,18.21
2022-10-17T19:06:11.133Z,18.20
2022-10-17T19:08:43.973Z,18.20
2022-10-17T19:11:19.811Z,18.18
2022-10-17T19:13:52.185Z,18.16
2022-10-17T19:16:27.504Z,18.16
2022-10-17T19:19:07.427Z,18.14
2022-10-17T19:21:39.752Z,18.16
2022-10-17T19:24:14.454Z,18.16
2022-10-17T19:26:47.515Z,18.17
2022-10-17T19:29:20.349Z,18.20
2022-10-17T19:31:52.929Z,18.20
2022-10-17T19:34:24.777Z,18.16
2022-10-17T19:36:56.713Z,18.10
2022-10-17T19:39:28.630Z,18.02
2022-10-17T19:42:05.863Z,17.95
2022-10-17T19:44:38.873Z,17.91
2022-10-17T19:47:10.839Z,17.87
2022-10-17T19:49:46.483Z,17.83
2022-10-17T19:52:20.948Z,17.76
2022-10-17T19:54:52.773Z,17.70
2022-10-17T19:57:25.762Z,17.64
2022-10-17T19:59:57.904Z,17.60
2022-10-17T20:02:30.002Z,17.56
2022-10-17T20:05:18.882Z,17.52
2022-10-17T20:07:51.319Z,17.49
2022-10-17T20:10:23.155Z,17.46
2022-10-17T20:12:55.013Z,17.43
2022-10-17T20:15:26.978Z,17.39
2022-10-17T20:17:58.897Z,17.34
2022-10-17T20:20:30.689Z,17.33
2022-10-17T20:23:03.595Z,17.31
2022-10-17T20:25:38.114Z,17.31
2022-10-17T20:28:09.948Z,17.29
2022-10-17T20:30:46.378Z,17.25
2022-10-17T20:33:18.256Z,17.22
2022-10-17T20:35:50.167Z,17.23
2022-10-17T20:38:22.036Z,17.22
2022-10-17T20:40:53.941Z,17.20
2022-10-17T20:43:25.826Z,17.20
2022-10-17T20:46:04.554Z,17.19
2022-10-17T20:48:41.735Z,17.18
2022-10-17T20:51:13.646Z,17.20
2022-10-17T20:53:45.497Z,17.20
2022-10-17T20:56:20.335Z,17.20
2022-10-17T20:59:05.218Z,17.20
2022-10-17T21:01:37.150Z,17.22
2022-10-17T21:07:00.994Z,17.23
2022-10-17T21:09:33.230Z,17.21
2022-10-17T21:12:05.564Z,17.23
2022-10-17T21:14:37.572Z,17.20
2022-10-17T21:17:09.850Z,17.20
2022-10-17T21:19:41.598Z,17.21
2022-10-17T21:22:13.441Z,17.21
2022-10-17T21:24:45.278Z,17.21
2022-10-17T21:27:18.897Z,17.20
2022-10-17T21:29:51.956Z,17.20
2022-10-17T21:32:33.595Z,17.18
2022-10-17T21:35:16.176Z,17.16
2022-10-17T21:37:48.949Z,17.14
2022-10-17T21:40:20.871Z,17.12
2022-10-17T21:42:53.058Z,17.08
2022-10-17T21:45:26.198Z,17.07
2022-10-17T21:48:13.739Z,17.07
2022-10-17T21:50:45.735Z,17.04
2022-10-17T21:53:17.546Z,17.04
2022-10-17T21:55:49.443Z,17.02
2022-10-17T21:58:21.858Z,17.01
2022-10-17T22:00:54.422Z,17.00
2022-10-17T22:03:26.244Z,16.99
2022-10-17T22:06:07.129Z,16.98
2022-10-17T22:08:51.024Z,16.98
2022-10-17T22:11:26.956Z,16.95
2022-10-17T22:14:05.092Z,16.99
2022-10-17T22:16:38.238Z,16.99
2022-10-17T22:19:11.242Z,16.99
2022-10-17T22:21:43.262Z,17.00
2022-10-17T22:24:17.149Z,17.01
2022-10-17T22:26:49.462Z,16.99
2022-10-17T22:29:21.277Z,16.98
2022-10-17T22:31:53.260Z,16.99
2022-10-17T22:34:25.350Z,17.01
2022-10-17T22:36:57.281Z,17.01
2022-10-17T22:39:29.238Z,17.03
2022-10-17T22:42:01.164Z,17.03
2022-10-17T22:44:33.062Z,17.02
2022-10-17T22:47:04.899Z,17.02
2022-10-17T22:49:36.885Z,17.01
2022-10-17T22:52:08.730Z,16.99
2022-10-17T22:54:40.609Z,16.98
2022-10-17T22:57:13.080Z,16.99
2022-10-17T22:59:45.043Z,16.96
2022-10-17T23:02:17.209Z,16.94
2022-10-17T23:04:49.055Z,16.91
2022-10-17T23:07:20.887Z,16.91
2022-10-17T23:09:52.930Z,16.89
2022-10-17T23:12:24.842Z,16.88
2022-10-17T23:14:57.010Z,16.85
2022-10-17T23:17:29.028Z,16.87
2022-10-17T23:20:00.961Z,16.85
2022-10-17T23:22:33.042Z,16.86
2022-10-17T23:25:05.531Z,16.87
2022-10-17T23:27:37.618Z,16.89
2022-10-17T23:30:11.732Z,16.90
2022-10-17T23:32:43.942Z,16.91
2022-10-17T23:35:15.779Z,16.90
2022-10-17T23:37:47.701Z,16.91
2022-10-17T23:40:19.828Z,16.91
2022-10-17T23:42:52.046Z,16.91
2022-10-17T23:45:23.905Z,16.90
2022-10-17T23:47:55.774Z,16.89
2022-10-17T23:50:27.639Z,16.88
2022-10-17T23:52:59.524Z,16.87
2022-10-17T23:55:31.401Z,16.87
2022-10-17T23:58:03.494Z,16.87
